Time;durP1;ratioP1;P1;durP2;ratioP2;P2;SDS_P1;SDS_P2;PMS_P1;PMS_P2;Temp;Humidity;BMP_temperature;BMP_pressure;BME280_temperature;BME280_humidity;BME280_pressure;Samples;Min_cycle;Max_cycle;Signal;HPM_P1;HPM_P2
2023/11/21 00:13:50;;;;;;;6.35;2.47;;;;;;;7.55;84.00;99362.91;30975717;28;97493;-64
2023/11/21 00:28:50;;;;;;;5.47;2.70;;;;;;;7.49;84.11;99368.88;30973754;28;96639;-64
2023/11/21 00:43:51;;;;;;;6.55;2.28;;;;;;;7.49;83.72;99382.13;30971949;28;96643;-62
2023/11/21 00:58:52;;;;;;;5.82;2.60;;;;;;;7.43;83.88;99376.50;30970064;28;97737;-64
2023/11/21 01:13:53;;;;;;;6.70;2.40;;;;;;;7.39;84.16;99388.44;30969788;28;96755;-66
2023/11/21 01:28:54;;;;;;;9.17;2.93;;;;;;;7.39;84.15;99382.31;30969105;28;96675;-64
2023/11/21 01:43:55;;;;;;;6.47;3.20;;;;;;;7.38;83.84;99394.75;30966764;28;97348;-65
2023/11/21 01:58:56;;;;;;;12.93;3.95;;;;;;;7.38;84.08;99392.09;30964898;28;96755;-66
2023/11/21 02:13:59;;;;;;;10.03;3.07;;;;;;;7.33;83.79;99385.66;30964331;28;97203;-65
2023/11/21 02:29:00;;;;;;;9.40;2.57;;;;;;;7.32;83.83;99391.94;30962444;28;96707;-62
2023/11/21 02:44:01;;;;;;;9.13;2.80;;;;;;;7.38;84.19;99408.00;30964292;28;97113;-65
2023/11/21 02:59:01;;;;;;;5.38;2.88;;;;;;;7.41;84.03;99410.31;30982536;28;97012;-63
2023/11/21 03:14:01;;;;;;;9.15;3.08;;;;;;;7.36;84.21;99412.63;30981031;28;96875;-64
2023/11/21 03:29:02;;;;;;;9.63;3.97;;;;;;;7.37;84.38;99421.41;30978901;28;110808;-64
2023/11/21 03:44:02;;;;;;;9.70;4.15;;;;;;;7.35;84.59;99424.22;30978180;28;97225;-65
2023/11/21 03:59:03;;;;;;;6.75;3.97;;;;;;;7.35;84.70;99431.34;30974213;28;97306;-66
2023/11/21 04:14:03;;;;;;;9.52;4.07;;;;;;;7.34;84.53;99441.13;30973388;28;97208;-63
2023/11/21 04:29:04;;;;;;;6.65;3.47;;;;;;;7.36;84.42;99455.03;30972259;28;96732;-63
2023/11/21 04:44:07;;;;;;;6.72;4.00;;;;;;;7.37;84.67;99461.16;30969954;28;97110;-65
2023/11/21 04:59:08;;;;;;;8.50;3.70;;;;;;;7.32;84.72;99474.09;30970581;28;97176;-64
2023/11/21 05:14:08;;;;;;;9.05;4.18;;;;;;;7.37;84.61;99482.38;30965660;28;97343;-64
2023/11/21 05:29:10;;;;;;;7.72;4.40;;;;;;;7.33;84.72;99476.56;30964269;28;97388;-63
2023/11/21 05:44:12;;;;;;;11.90;4.57;;;;;;;7.36;84.14;99494.75;30962540;28;97322;-63
2023/11/21 05:59:12;;;;;;;7.27;4.50;;;;;;;7.35;84.29;99506.34;30961297;28;97239;-64
2023/11/21 06:14:17;;;;;;;8.07;3.60;;;;;;;7.31;84.52;99512.97;30960066;28;97369;-64
2023/11/21 06:29:18;;;;;;;8.47;3.97;;;;;;;7.24;84.85;99541.13;30960521;28;97113;-63
2023/11/21 06:44:19;;;;;;;9.23;4.30;;;;;;;7.15;84.44;99547.41;30956757;28;112925;-64
2023/11/21 06:59:20;;;;;;;6.10;3.90;;;;;;;7.18;84.55;99552.41;30957006;28;96817;-64
2023/11/21 07:14:21;;;;;;;8.25;5.15;;;;;;;7.23;85.19;99563.31;30958198;28;97259;-63
2023/11/21 07:29:21;;;;;;;9.80;5.40;;;;;;;7.27;84.46;99568.13;30956068;28;97397;-63
2023/11/21 07:44:21;;;;;;;11.35;4.97;;;;;;;7.40;84.71;99580.88;30974619;28;97414;-63
2023/11/21 07:59:23;;;;;;;14.50;5.47;;;;;;;7.48;84.45;99587.19;30972153;28;112353;-62
2023/11/21 08:14:27;;;;;;;9.83;5.57;;;;;;;7.53;84.39;99580.41;30953852;28;97728;-63
2023/11/21 08:29:27;;;;;;;13.67;5.13;;;;;;;7.74;84.60;99610.91;30970702;28;97089;-62
2023/11/21 08:44:27;;;;;;;9.63;4.85;;;;;;;7.97;84.37;99609.22;30964532;28;97062;-64
2023/11/21 08:59:28;;;;;;;12.32;4.80;;;;;;;8.38;83.81;99618.94;30965544;28;96736;-62
2023/11/21 09:14:28;;;;;;;16.65;5.45;;;;;;;8.50;83.55;99631.88;30964211;28;97548;-64
2023/11/21 09:29:29;;;;;;;9.07;5.25;;;;;;;8.62;83.64;99622.53;30961160;28;97159;-62
2023/11/21 09:44:45;;;;;;;10.23;4.95;;;;;;;10.35;82.19;99632.00;30962119;28;111980;-62
2023/11/21 09:59:50;;;;;;;6.90;3.90;;;;;;;9.87;81.14;99639.41;30961298;28;96762;-64
2023/11/21 10:14:52;;;;;;;8.07;4.30;;;;;;;10.47;81.97;99645.69;30961153;28;97429;-64
2023/11/21 10:29:53;;;;;;;8.20;4.70;;;;;;;10.46;80.06;99655.50;30957795;28;98504;-62
2023/11/21 10:44:55;;;;;;;7.05;3.67;;;;;;;9.66;80.14;99664.81;30957728;28;97026;-63
2023/11/21 10:59:56;;;;;;;10.10;6.23;;;;;;;9.43;80.86;99680.75;30955043;28;97186;-62
2023/11/21 11:14:57;;;;;;;14.20;9.40;;;;;;;9.06;80.83;99674.31;30972946;28;97188;-62
2023/11/21 11:30:07;;;;;;;25.40;13.80;;;;;;;8.60;80.27;99683.78;30975430;28;97221;-63
2023/11/21 11:45:19;;;;;;;22.43;12.93;;;;;;;7.99;80.26;99701.88;30974560;28;97473;-62
2023/11/21 12:00:24;;;;;;;24.00;12.93;;;;;;;7.68;80.20;99715.78;30973650;28;96730;-62
2023/11/21 12:15:26;;;;;;;20.07;11.83;;;;;;;7.33;81.01;99727.47;30970259;28;97247;-62
2023/11/21 12:30:31;;;;;;;19.87;11.63;;;;;;;7.06;80.56;99739.94;30970054;28;97501;-63
2023/11/21 12:45:31;;;;;;;20.50;11.50;;;;;;;6.80;80.44;99759.31;30966936;28;96647;-62
2023/11/21 13:00:39;;;;;;;14.40;9.45;;;;;;;6.44;80.73;99794.63;30967676;28;97183;-63
2023/11/21 13:15:42;;;;;;;12.33;8.37;;;;;;;5.99;80.17;99813.25;30965564;28;96711;-62
2023/11/21 13:30:44;;;;;;;10.30;7.73;;;;;;;5.44;79.78;99833.41;30961910;28;96953;-62
2023/11/21 13:45:45;;;;;;;7.07;5.13;;;;;;;5.14;80.07;99850.31;30961577;28;96882;-63
2023/11/21 14:00:46;;;;;;;10.20;6.43;;;;;;;4.87;80.50;99880.97;30959531;28;96985;-63
2023/11/21 14:15:50;;;;;;;12.70;6.70;;;;;;;4.58;80.25;99902.91;30961057;28;97083;-62
2023/11/21 14:30:51;;;;;;;6.33;4.67;;;;;;;4.33;80.17;99949.97;30958244;28;96816;-63
2023/11/21 14:45:51;;;;;;;9.43;6.35;;;;;;;4.06;80.56;99954.03;30956200;28;97593;-64
2023/11/21 15:00:58;;;;;;;7.82;5.40;;;;;;;3.66;79.89;99988.25;30956249;28;97069;-64
2023/11/21 15:16:07;;;;;;;10.23;7.43;;;;;;;3.49;80.43;100003.69;30956408;28;97080;-64
2023/11/21 15:31:08;;;;;;;10.23;7.20;;;;;;;3.31;80.25;100037.66;30954763;28;98774;-63
2023/11/21 15:46:08;;;;;;;10.07;7.65;;;;;;;3.08;80.69;100067.69;30954739;28;97504;-64
2023/11/21 16:01:09;;;;;;;9.48;7.03;;;;;;;2.93;80.05;100083.75;30969083;28;104678;-64
2023/11/21 16:16:10;;;;;;;12.55;9.35;;;;;;;2.80;80.49;100117.25;30973031;28;97063;-64
2023/11/21 16:31:10;;;;;;;10.90;7.95;;;;;;;2.70;80.23;100151.34;30971272;28;97493;-63
2023/11/21 16:46:11;;;;;;;10.98;7.20;;;;;;;2.50;79.76;100168.66;30968876;28;112973;-64
2023/11/21 17:01:12;;;;;;;9.50;7.18;;;;;;;2.32;80.33;100189.31;30969072;28;96630;-63
2023/11/21 17:16:13;;;;;;;14.20;8.65;;;;;;;2.27;79.93;100209.88;30965880;28;96761;-63
2023/11/21 17:31:13;;;;;;;13.32;8.18;;;;;;;2.01;79.86;100216.16;30965023;28;97004;-63
2023/11/21 17:46:21;;;;;;;14.38;9.05;;;;;;;1.79;79.84;100234.44;30962962;28;96725;-64
2023/11/21 18:01:21;;;;;;;15.52;10.68;;;;;;;1.72;79.96;100262.09;30959070;28;97362;-64
2023/11/21 18:16:22;;;;;;;20.65;12.13;;;;;;;1.48;79.37;100274.25;30958657;28;97310;-64
2023/11/21 18:31:22;;;;;;;21.40;12.20;;;;;;;1.33;79.96;100294.56;30958682;28;97264;-63
2023/11/21 18:46:22;;;;;;;20.23;12.38;;;;;;;1.44;80.13;100319.22;30957741;28;113022;-63
2023/11/21 19:01:27;;;;;;;21.45;12.52;;;;;;;1.33;79.72;100333.94;30955282;28;112565;-64
2023/11/21 19:16:27;;;;;;;;;;;;;;;1.22;79.77;100360.09;30957129;28;97386;-62
2023/11/21 19:31:27;;;;;;;22.88;13.73;;;;;;;1.20;79.95;100385.59;30967193;28;96814;-63
2023/11/21 19:46:28;;;;;;;23.05;15.07;;;;;;;1.14;79.72;100409.63;30976157;28;97165;-65
2023/11/21 20:01:28;;;;;;;27.30;17.05;;;;;;;1.20;80.24;100432.81;30975452;28;112607;-62
2023/11/21 20:16:28;;;;;;;24.27;15.32;;;;;;;1.10;79.54;100455.41;30973804;28;102777;-64
2023/11/21 20:31:29;;;;;;;21.05;13.93;;;;;;;0.95;79.63;100478.25;30972532;28;96851;-65
2023/11/21 20:46:29;;;;;;;21.13;13.30;;;;;;;0.90;79.92;100491.66;30967324;28;107774;-62
2023/11/21 21:01:29;;;;;;;23.30;14.30;;;;;;;0.82;79.68;100514.91;30967030;28;97241;-63
2023/11/21 21:16:31;;;;;;;23.58;15.35;;;;;;;0.74;79.38;100535.53;30968030;28;106705;-64
2023/11/21 21:31:36;;;;;;;23.77;14.50;;;;;;;0.59;79.61;100558.34;30966126;28;98321;-63
2023/11/21 21:46:36;;;;;;;;;;;;;;;0.52;79.42;100599.84;30965877;28;97725;-62
2023/11/21 22:01:43;;;;;;;23.55;15.18;;;;;;;0.45;79.60;100616.88;30966451;28;97196;-64
2023/11/21 22:16:43;;;;;;;29.38;16.23;;;;;;;0.55;79.74;100632.88;30963076;28;97050;-62
2023/11/21 22:31:44;;;;;;;28.52;16.55;;;;;;;0.51;79.70;100634.88;30960589;28;97180;-64
2023/11/21 22:46:44;;;;;;;26.85;16.05;;;;;;;0.54;79.77;100644.31;30960969;28;97407;-64
2023/11/21 23:01:49;;;;;;;30.20;15.77;;;;;;;0.62;79.42;100656.00;30963579;28;96842;-62
2023/11/21 23:16:51;;;;;;;29.20;17.58;;;;;;;0.57;79.73;100663.31;30981798;28;96802;-63
2023/11/21 23:31:51;;;;;;;27.35;16.77;;;;;;;0.37;79.48;100661.94;30981514;28;97333;-64
2023/11/21 23:46:51;;;;;;;29.23;17.83;;;;;;;0.31;79.41;100698.97;30978407;28;117746;-64
